sensor_id;sensor_type;location;lat;lon;timestamp;temperature;humidity
14908;DHT22;7545;52.092;7.006;2023-08-31T00:00:29;14.40;99.90
14908;DHT22;7545;52.092;7.006;2023-08-31T00:02:57;14.40;99.90
14908;DHT22;7545;52.092;7.006;2023-08-31T00:05:22;14.50;99.90
14908;DHT22;7545;52.092;7.006;2023-08-31T00:07:50;14.50;99.90
14908;DHT22;7545;52.092;7.006;2023-08-31T00:10:16;14.40;99.90
14908;DHT22;7545;52.092;7.006;2023-08-31T00:12:42;14.40;99.90
14908;DHT22;7545;52.092;7.006;2023-08-31T00:15:09;14.40;99.90
14908;DHT22;7545;52.092;7.006;2023-08-31T00:17:35;14.40;99.90
14908;DHT22;7545;52.092;7.006;2023-08-31T00:20:00;14.40;99.90
14908;DHT22;7545;52.092;7.006;2023-08-31T00:22:26;14.40;99.90
14908;DHT22;7545;52.092;7.006;2023-08-31T00:24:52;14.40;99.90
14908;DHT22;7545;52.092;7.006;2023-08-31T00:27:18;14.40;99.90
14908;DHT22;7545;52.092;7.006;2023-08-31T00:29:43;14.30;99.90
14908;DHT22;7545;52.092;7.006;2023-08-31T00:32:15;14.30;99.90
14908;DHT22;7545;52.092;7.006;2023-08-31T00:34:40;14.30;99.90
14908;DHT22;7545;52.092;7.006;2023-08-31T00:37:06;14.30;99.90
14908;DHT22;7545;52.092;7.006;2023-08-31T00:39:32;14.30;99.90
14908;DHT22;7545;52.092;7.006;2023-08-31T00:41:59;14.30;99.90
14908;DHT22;7545;52.092;7.006;2023-08-31T00:44:24;14.30;99.90
14908;DHT22;7545;52.092;7.006;2023-08-31T00:46:50;14.20;99.90
14908;DHT22;7545;52.092;7.006;2023-08-31T00:49:17;14.20;99.90
14908;DHT22;7545;52.092;7.006;2023-08-31T00:51:43;14.20;99.90
14908;DHT22;7545;52.092;7.006;2023-08-31T00:54:14;14.20;99.90
14908;DHT22;7545;52.092;7.006;2023-08-31T00:56:40;14.20;99.90
14908;DHT22;7545;52.092;7.006;2023-08-31T00:59:06;14.20;99.90
14908;DHT22;7545;52.092;7.006;2023-08-31T01:01:37;14.20;99.90
14908;DHT22;7545;52.092;7.006;2023-08-31T01:12:09;14.10;99.90
14908;DHT22;7545;52.092;7.006;2023-08-31T01:14:56;14.10;99.90
14908;DHT22;7545;52.092;7.006;2023-08-31T01:17:26;14.10;99.90
14908;DHT22;7545;52.092;7.006;2023-08-31T01:19:55;14.10;99.90
14908;DHT22;7545;52.092;7.006;2023-08-31T01:22:43;14.10;99.90
14908;DHT22;7545;52.092;7.006;2023-08-31T01:25:09;14.00;99.90
14908;DHT22;7545;52.092;7.006;2023-08-31T01:27:36;14.00;99.90
14908;DHT22;7545;52.092;7.006;2023-08-31T01:30:03;14.00;99.90
14908;DHT22;7545;52.092;7.006;2023-08-31T01:32:30;13.90;99.90
14908;DHT22;7545;52.092;7.006;2023-08-31T01:34:56;13.90;99.90
14908;DHT22;7545;52.092;7.006;2023-08-31T01:37:34;13.90;99.90
14908;DHT22;7545;52.092;7.006;2023-08-31T01:40:17;13.90;99.90
14908;DHT22;7545;52.092;7.006;2023-08-31T01:42:46;13.90;99.90
14908;DHT22;7545;52.092;7.006;2023-08-31T01:45:15;13.90;99.90
14908;DHT22;7545;52.092;7.006;2023-08-31T01:47:42;13.80;99.90
14908;DHT22;7545;52.092;7.006;2023-08-31T01:50:08;13.80;99.90
14908;DHT22;7545;52.092;7.006;2023-08-31T01:52:34;13.80;99.90
14908;DHT22;7545;52.092;7.006;2023-08-31T01:54:59;13.80;99.90
14908;DHT22;7545;52.092;7.006;2023-08-31T01:57:25;13.80;99.90
14908;DHT22;7545;52.092;7.006;2023-08-31T01:59:51;13.80;99.90
14908;DHT22;7545;52.092;7.006;2023-08-31T02:02:16;13.80;99.90
14908;DHT22;7545;52.092;7.006;2023-08-31T02:04:43;13.80;99.90
14908;DHT22;7545;52.092;7.006;2023-08-31T02:07:08;13.70;99.90
14908;DHT22;7545;52.092;7.006;2023-08-31T02:09:34;13.60;99.90
14908;DHT22;7545;52.092;7.006;2023-08-31T02:11:59;13.70;99.90
14908;DHT22;7545;52.092;7.006;2023-08-31T02:14:25;13.70;99.90
14908;DHT22;7545;52.092;7.006;2023-08-31T02:16:50;13.80;99.90
14908;DHT22;7545;52.092;7.006;2023-08-31T02:19:16;13.70;99.90
14908;DHT22;7545;52.092;7.006;2023-08-31T02:21:42;13.70;99.90
14908;DHT22;7545;52.092;7.006;2023-08-31T02:24:07;13.70;99.90
14908;DHT22;7545;52.092;7.006;2023-08-31T02:26:35;13.70;99.90
14908;DHT22;7545;52.092;7.006;2023-08-31T02:29:01;13.60;99.90
14908;DHT22;7545;52.092;7.006;2023-08-31T02:31:27;13.70;99.90
14908;DHT22;7545;52.092;7.006;2023-08-31T02:33:53;13.70;99.90
14908;DHT22;7545;52.092;7.006;2023-08-31T02:36:18;13.70;99.90
14908;DHT22;7545;52.092;7.006;2023-08-31T02:38:46;13.70;99.90
14908;DHT22;7545;52.092;7.006;2023-08-31T02:41:12;13.70;99.90
14908;DHT22;7545;52.092;7.006;2023-08-31T02:43:38;13.70;99.90
14908;DHT22;7545;52.092;7.006;2023-08-31T02:46:04;13.70;99.90
14908;DHT22;7545;52.092;7.006;2023-08-31T02:48:32;13.70;99.90
14908;DHT22;7545;52.092;7.006;2023-08-31T02:50:58;13.70;99.90
14908;DHT22;7545;52.092;7.006;2023-08-31T02:53:29;13.70;99.90
14908;DHT22;7545;52.092;7.006;2023-08-31T02:55:55;13.60;99.90
14908;DHT22;7545;52.092;7.006;2023-08-31T02:58:21;13.60;99.90
14908;DHT22;7545;52.092;7.006;2023-08-31T03:00:46;13.60;99.90
14908;DHT22;7545;52.092;7.006;2023-08-31T03:03:16;13.60;99.90
14908;DHT22;7545;52.092;7.006;2023-08-31T03:05:43;13.60;99.90
14908;DHT22;7545;52.092;7.006;2023-08-31T03:08:08;13.60;99.90
14908;DHT22;7545;52.092;7.006;2023-08-31T03:10:35;13.70;99.90
14908;DHT22;7545;52.092;7.006;2023-08-31T03:13:01;13.60;99.90
14908;DHT22;7545;52.092;7.006;2023-08-31T03:15:27;13.60;99.90
14908;DHT22;7545;52.092;7.006;2023-08-31T03:17:52;13.60;99.90
14908;DHT22;7545;52.092;7.006;2023-08-31T03:20:18;13.60;99.90
14908;DHT22;7545;52.092;7.006;2023-08-31T03:22:43;13.60;99.90
14908;DHT22;7545;52.092;7.006;2023-08-31T03:25:09;13.50;99.90
14908;DHT22;7545;52.092;7.006;2023-08-31T03:27:34;13.60;99.90
14908;DHT22;7545;52.092;7.006;2023-08-31T03:30:01;13.50;99.90
14908;DHT22;7545;52.092;7.006;2023-08-31T03:32:26;13.50;99.90
14908;DHT22;7545;52.092;7.006;2023-08-31T03:34:52;13.50;99.90
14908;DHT22;7545;52.092;7.006;2023-08-31T03:37:17;13.50;99.90
14908;DHT22;7545;52.092;7.006;2023-08-31T03:39:47;13.50;99.90
14908;DHT22;7545;52.092;7.006;2023-08-31T03:42:13;13.50;99.90
14908;DHT22;7545;52.092;7.006;2023-08-31T03:44:38;13.50;99.90
14908;DHT22;7545;52.092;7.006;2023-08-31T03:47:04;13.50;99.90
14908;DHT22;7545;52.092;7.006;2023-08-31T03:49:30;13.50;99.90
14908;DHT22;7545;52.092;7.006;2023-08-31T03:51:57;13.50;99.90
14908;DHT22;7545;52.092;7.006;2023-08-31T03:54:23;13.50;99.90
14908;DHT22;7545;52.092;7.006;2023-08-31T03:56:48;13.40;99.90
14908;DHT22;7545;52.092;7.006;2023-08-31T03:59:14;13.40;99.90
14908;DHT22;7545;52.092;7.006;2023-08-31T04:01:39;13.40;99.90
14908;DHT22;7545;52.092;7.006;2023-08-31T04:04:05;13.40;99.90
14908;DHT22;7545;52.092;7.006;2023-08-31T04:06:31;13.40;99.90
14908;DHT22;7545;52.092;7.006;2023-08-31T04:08:56;13.40;99.90
14908;DHT22;7545;52.092;7.006;2023-08-31T04:11:22;13.40;99.90
14908;DHT22;7545;52.092;7.006;2023-08-31T04:13:48;13.40;99.90
14908;DHT22;7545;52.092;7.006;2023-08-31T04:16:14;13.40;99.90
14908;DHT22;7545;52.092;7.006;2023-08-31T04:18:39;13.30;99.90
14908;DHT22;7545;52.092;7.006;2023-08-31T04:21:05;13.40;99.90
14908;DHT22;7545;52.092;7.006;2023-08-31T04:23:31;13.30;99.90
14908;DHT22;7545;52.092;7.006;2023-08-31T04:25:58;13.30;99.90
14908;DHT22;7545;52.092;7.006;2023-08-31T04:28:24;13.30;99.90
14908;DHT22;7545;52.092;7.006;2023-08-31T04:30:50;13.30;99.90
14908;DHT22;7545;52.092;7.006;2023-08-31T04:33:15;13.40;99.90
14908;DHT22;7545;52.092;7.006;2023-08-31T04:35:41;13.30;99.90
14908;DHT22;7545;52.092;7.006;2023-08-31T04:38:07;13.40;99.90
14908;DHT22;7545;52.092;7.006;2023-08-31T04:40:33;13.40;99.90
14908;DHT22;7545;52.092;7.006;2023-08-31T04:42:59;13.40;99.90
14908;DHT22;7545;52.092;7.006;2023-08-31T04:45:24;13.40;99.90
14908;DHT22;7545;52.092;7.006;2023-08-31T04:47:50;13.40;99.90
14908;DHT22;7545;52.092;7.006;2023-08-31T04:50:17;13.40;99.90
14908;DHT22;7545;52.092;7.006;2023-08-31T04:52:43;13.40;99.90
14908;DHT22;7545;52.092;7.006;2023-08-31T04:55:08;13.50;99.90
14908;DHT22;7545;52.092;7.006;2023-08-31T04:57:34;13.40;99.90
14908;DHT22;7545;52.092;7.006;2023-08-31T05:00:00;13.50;99.90
14908;DHT22;7545;52.092;7.006;2023-08-31T05:02:25;13.50;99.90
14908;DHT22;7545;52.092;7.006;2023-08-31T05:04:51;13.50;99.90
14908;DHT22;7545;52.092;7.006;2023-08-31T05:07:17;13.40;99.90
14908;DHT22;7545;52.092;7.006;2023-08-31T05:09:42;13.50;99.90
14908;DHT22;7545;52.092;7.006;2023-08-31T05:12:08;13.50;99.90
14908;DHT22;7545;52.092;7.006;2023-08-31T05:14:34;13.50;99.90
14908;DHT22;7545;52.092;7.006;2023-08-31T05:17:03;13.50;99.90
14908;DHT22;7545;52.092;7.006;2023-08-31T05:19:30;13.50;99.90
14908;DHT22;7545;52.092;7.006;2023-08-31T05:21:56;13.50;99.90
14908;DHT22;7545;52.092;7.006;2023-08-31T05:24:21;13.50;99.90
14908;DHT22;7545;52.092;7.006;2023-08-31T05:26:47;13.50;99.90
14908;DHT22;7545;52.092;7.006;2023-08-31T05:29:12;13.50;99.90
14908;DHT22;7545;52.092;7.006;2023-08-31T05:31:38;13.40;99.90
14908;DHT22;7545;52.092;7.006;2023-08-31T05:34:03;13.50;99.90
14908;DHT22;7545;52.092;7.006;2023-08-31T05:36:29;13.50;99.90
14908;DHT22;7545;52.092;7.006;2023-08-31T05:38:54;13.50;99.90
14908;DHT22;7545;52.092;7.006;2023-08-31T05:41:20;13.60;99.90
14908;DHT22;7545;52.092;7.006;2023-08-31T05:43:46;13.60;99.90
14908;DHT22;7545;52.092;7.006;2023-08-31T05:46:11;13.60;99.90
14908;DHT22;7545;52.092;7.006;2023-08-31T05:48:37;13.60;99.90
14908;DHT22;7545;52.092;7.006;2023-08-31T05:51:03;13.60;99.90
14908;DHT22;7545;52.092;7.006;2023-08-31T05:53:31;13.60;99.90
14908;DHT22;7545;52.092;7.006;2023-08-31T05:55:58;13.70;99.90
14908;DHT22;7545;52.092;7.006;2023-08-31T05:58:31;13.70;99.90
14908;DHT22;7545;52.092;7.006;2023-08-31T06:00:57;13.70;99.90
14908;DHT22;7545;52.092;7.006;2023-08-31T06:03:22;13.70;99.90
14908;DHT22;7545;52.092;7.006;2023-08-31T06:05:48;13.70;99.90
14908;DHT22;7545;52.092;7.006;2023-08-31T06:08:13;13.70;99.90
14908;DHT22;7545;52.092;7.006;2023-08-31T06:10:39;13.70;99.90
14908;DHT22;7545;52.092;7.006;2023-08-31T06:13:05;13.70;99.90
14908;DHT22;7545;52.092;7.006;2023-08-31T06:15:30;13.70;99.90
14908;DHT22;7545;52.092;7.006;2023-08-31T06:17:56;13.70;99.90
14908;DHT22;7545;52.092;7.006;2023-08-31T06:20:21;13.80;99.90
14908;DHT22;7545;52.092;7.006;2023-08-31T06:22:47;13.80;99.90
14908;DHT22;7545;52.092;7.006;2023-08-31T06:25:13;13.90;99.90
14908;DHT22;7545;52.092;7.006;2023-08-31T06:27:42;13.90;99.90
14908;DHT22;7545;52.092;7.006;2023-08-31T06:30:08;13.90;99.90
14908;DHT22;7545;52.092;7.006;2023-08-31T06:32:37;14.00;99.90
14908;DHT22;7545;52.092;7.006;2023-08-31T06:35:03;14.00;99.90
14908;DHT22;7545;52.092;7.006;2023-08-31T06:37:29;14.00;99.90
14908;DHT22;7545;52.092;7.006;2023-08-31T06:39:54;14.10;99.90
14908;DHT22;7545;52.092;7.006;2023-08-31T06:42:20;14.00;99.90
14908;DHT22;7545;52.092;7.006;2023-08-31T06:44:45;14.00;99.90
14908;DHT22;7545;52.092;7.006;2023-08-31T06:47:11;14.10;99.90
14908;DHT22;7545;52.092;7.006;2023-08-31T06:49:39;14.10;99.90
14908;DHT22;7545;52.092;7.006;2023-08-31T06:52:04;14.10;99.90
14908;DHT22;7545;52.092;7.006;2023-08-31T06:54:33;14.20;99.90
14908;DHT22;7545;52.092;7.006;2023-08-31T06:56:58;14.20;99.90
14908;DHT22;7545;52.092;7.006;2023-08-31T06:59:24;14.20;99.90
14908;DHT22;7545;52.092;7.006;2023-08-31T07:01:50;14.20;99.90
14908;DHT22;7545;52.092;7.006;2023-08-31T07:04:15;14.30;99.90
14908;DHT22;7545;52.092;7.006;2023-08-31T07:06:41;14.30;99.90
14908;DHT22;7545;52.092;7.006;2023-08-31T07:09:06;14.40;99.90
14908;DHT22;7545;52.092;7.006;2023-08-31T07:11:33;14.40;99.90
14908;DHT22;7545;52.092;7.006;2023-08-31T07:13:59;14.50;99.90
14908;DHT22;7545;52.092;7.006;2023-08-31T07:16:25;14.60;99.90
14908;DHT22;7545;52.092;7.006;2023-08-31T07:18:51;14.60;99.90
14908;DHT22;7545;52.092;7.006;2023-08-31T07:21:17;14.60;99.90
14908;DHT22;7545;52.092;7.006;2023-08-31T07:23:42;14.60;99.90
14908;DHT22;7545;52.092;7.006;2023-08-31T07:26:08;14.60;99.90
14908;DHT22;7545;52.092;7.006;2023-08-31T07:28:34;14.60;99.90
14908;DHT22;7545;52.092;7.006;2023-08-31T07:31:04;14.70;99.90
14908;DHT22;7545;52.092;7.006;2023-08-31T07:33:31;14.70;99.90
14908;DHT22;7545;52.092;7.006;2023-08-31T07:35:58;14.80;99.90
14908;DHT22;7545;52.092;7.006;2023-08-31T07:38:24;14.80;99.90
14908;DHT22;7545;52.092;7.006;2023-08-31T07:40:50;14.90;99.90
14908;DHT22;7545;52.092;7.006;2023-08-31T07:43:16;14.90;99.90
14908;DHT22;7545;52.092;7.006;2023-08-31T07:45:41;14.90;99.90
14908;DHT22;7545;52.092;7.006;2023-08-31T07:48:07;14.90;99.90
14908;DHT22;7545;52.092;7.006;2023-08-31T07:50:33;15.00;99.90
14908;DHT22;7545;52.092;7.006;2023-08-31T07:52:59;15.00;99.90
14908;DHT22;7545;52.092;7.006;2023-08-31T07:55:25;15.00;99.90
14908;DHT22;7545;52.092;7.006;2023-08-31T07:57:51;15.00;99.90
14908;DHT22;7545;52.092;7.006;2023-08-31T08:00:16;15.10;99.90
14908;DHT22;7545;52.092;7.006;2023-08-31T08:02:44;15.10;99.90
14908;DHT22;7545;52.092;7.006;2023-08-31T08:05:10;15.20;99.90
14908;DHT22;7545;52.092;7.006;2023-08-31T08:07:36;15.30;99.90
14908;DHT22;7545;52.092;7.006;2023-08-31T08:10:01;15.30;99.90
14908;DHT22;7545;52.092;7.006;2023-08-31T08:12:28;15.40;99.90
14908;DHT22;7545;52.092;7.006;2023-08-31T08:15:01;15.40;99.90
14908;DHT22;7545;52.092;7.006;2023-08-31T08:17:27;15.40;99.90
14908;DHT22;7545;52.092;7.006;2023-08-31T08:19:53;15.50;99.90
14908;DHT22;7545;52.092;7.006;2023-08-31T08:22:18;15.50;99.90
14908;DHT22;7545;52.092;7.006;2023-08-31T08:24:44;15.50;99.90
14908;DHT22;7545;52.092;7.006;2023-08-31T08:27:09;15.50;99.90
14908;DHT22;7545;52.092;7.006;2023-08-31T08:29:35;15.60;99.90
14908;DHT22;7545;52.092;7.006;2023-08-31T08:32:00;15.60;99.90
14908;DHT22;7545;52.092;7.006;2023-08-31T08:34:26;15.70;99.90
14908;DHT22;7545;52.092;7.006;2023-08-31T08:36:52;15.70;99.90
14908;DHT22;7545;52.092;7.006;2023-08-31T08:39:18;15.70;99.90
14908;DHT22;7545;52.092;7.006;2023-08-31T08:41:44;15.70;99.90
14908;DHT22;7545;52.092;7.006;2023-08-31T08:44:10;15.70;99.90
14908;DHT22;7545;52.092;7.006;2023-08-31T08:46:36;15.70;99.90
14908;DHT22;7545;52.092;7.006;2023-08-31T08:49:03;15.80;99.90
14908;DHT22;7545;52.092;7.006;2023-08-31T08:51:31;15.80;99.90
14908;DHT22;7545;52.092;7.006;2023-08-31T08:54:01;15.80;99.90
14908;DHT22;7545;52.092;7.006;2023-08-31T08:56:27;15.80;99.90
14908;DHT22;7545;52.092;7.006;2023-08-31T08:58:52;15.90;99.90
14908;DHT22;7545;52.092;7.006;2023-08-31T09:01:18;15.90;99.90
14908;DHT22;7545;52.092;7.006;2023-08-31T09:03:48;15.90;99.90
14908;DHT22;7545;52.092;7.006;2023-08-31T09:06:14;15.90;99.90
14908;DHT22;7545;52.092;7.006;2023-08-31T09:08:41;16.00;99.90
14908;DHT22;7545;52.092;7.006;2023-08-31T09:11:07;16.10;99.90
14908;DHT22;7545;52.092;7.006;2023-08-31T09:13:32;16.10;99.90
14908;DHT22;7545;52.092;7.006;2023-08-31T09:15:59;16.20;99.90
14908;DHT22;7545;52.092;7.006;2023-08-31T09:18:28;16.20;99.90
14908;DHT22;7545;52.092;7.006;2023-08-31T09:20:56;16.30;99.90
14908;DHT22;7545;52.092;7.006;2023-08-31T09:23:25;16.40;99.90
14908;DHT22;7545;52.092;7.006;2023-08-31T09:25:54;16.50;99.90
14908;DHT22;7545;52.092;7.006;2023-08-31T09:28:22;16.50;99.90
14908;DHT22;7545;52.092;7.006;2023-08-31T09:30:49;16.50;99.90
14908;DHT22;7545;52.092;7.006;2023-08-31T09:33:16;16.50;99.90
14908;DHT22;7545;52.092;7.006;2023-08-31T09:35:57;16.50;99.90
14908;DHT22;7545;52.092;7.006;2023-08-31T09:38:22;16.60;99.90
14908;DHT22;7545;52.092;7.006;2023-08-31T09:40:48;16.60;99.90
14908;DHT22;7545;52.092;7.006;2023-08-31T09:43:22;16.60;99.90
14908;DHT22;7545;52.092;7.006;2023-08-31T09:45:48;16.60;99.90
14908;DHT22;7545;52.092;7.006;2023-08-31T09:48:15;16.70;99.90
14908;DHT22;7545;52.092;7.006;2023-08-31T09:50:43;16.60;99.90
14908;DHT22;7545;52.092;7.006;2023-08-31T09:53:11;16.70;99.90
14908;DHT22;7545;52.092;7.006;2023-08-31T09:55:39;16.70;99.90
14908;DHT22;7545;52.092;7.006;2023-08-31T09:58:06;16.80;99.90
14908;DHT22;7545;52.092;7.006;2023-08-31T10:00:35;16.80;99.90
14908;DHT22;7545;52.092;7.006;2023-08-31T10:03:04;16.90;99.90
14908;DHT22;7545;52.092;7.006;2023-08-31T10:05:30;16.90;99.90
14908;DHT22;7545;52.092;7.006;2023-08-31T10:07:57;17.00;99.90
14908;DHT22;7545;52.092;7.006;2023-08-31T10:10:24;17.00;99.90
14908;DHT22;7545;52.092;7.006;2023-08-31T10:12:50;17.00;99.90
14908;DHT22;7545;52.092;7.006;2023-08-31T10:15:17;17.00;99.90
14908;DHT22;7545;52.092;7.006;2023-08-31T10:17:43;17.10;99.90
14908;DHT22;7545;52.092;7.006;2023-08-31T10:20:11;17.10;99.90
14908;DHT22;7545;52.092;7.006;2023-08-31T10:22:37;17.10;99.90
14908;DHT22;7545;52.092;7.006;2023-08-31T10:25:05;17.20;99.90
14908;DHT22;7545;52.092;7.006;2023-08-31T10:27:42;17.30;99.90
14908;DHT22;7545;52.092;7.006;2023-08-31T10:32:40;17.60;99.90
14908;DHT22;7545;52.092;7.006;2023-08-31T10:35:08;17.70;99.90
14908;DHT22;7545;52.092;7.006;2023-08-31T10:37:34;17.80;99.90
14908;DHT22;7545;52.092;7.006;2023-08-31T10:40:18;17.80;99.90
14908;DHT22;7545;52.092;7.006;2023-08-31T10:42:47;17.80;99.90
14908;DHT22;7545;52.092;7.006;2023-08-31T10:45:43;17.80;99.90
14908;DHT22;7545;52.092;7.006;2023-08-31T10:48:10;17.80;99.90
14908;DHT22;7545;52.092;7.006;2023-08-31T10:50:41;17.80;99.90
14908;DHT22;7545;52.092;7.006;2023-08-31T10:53:08;17.80;99.90
14908;DHT22;7545;52.092;7.006;2023-08-31T10:55:49;18.00;99.90
14908;DHT22;7545;52.092;7.006;2023-08-31T10:58:15;18.00;99.90
14908;DHT22;7545;52.092;7.006;2023-08-31T11:00:50;18.00;99.90
14908;DHT22;7545;52.092;7.006;2023-08-31T11:03:16;18.10;99.90
14908;DHT22;7545;52.092;7.006;2023-08-31T11:05:51;18.10;99.90
14908;DHT22;7545;52.092;7.006;2023-08-31T11:08:24;18.10;99.90
14908;DHT22;7545;52.092;7.006;2023-08-31T11:10:50;18.10;99.90
14908;DHT22;7545;52.092;7.006;2023-08-31T11:13:18;18.10;99.90
14908;DHT22;7545;52.092;7.006;2023-08-31T11:15:47;18.10;99.90
14908;DHT22;7545;52.092;7.006;2023-08-31T11:18:13;18.10;99.90
14908;DHT22;7545;52.092;7.006;2023-08-31T11:20:43;18.00;99.90
14908;DHT22;7545;52.092;7.006;2023-08-31T11:23:09;18.00;99.90
14908;DHT22;7545;52.092;7.006;2023-08-31T11:25:35;18.10;99.90
14908;DHT22;7545;52.092;7.006;2023-08-31T11:28:05;18.10;99.90
14908;DHT22;7545;52.092;7.006;2023-08-31T11:30:32;18.20;99.90
14908;DHT22;7545;52.092;7.006;2023-08-31T11:33:05;18.10;99.90
14908;DHT22;7545;52.092;7.006;2023-08-31T11:35:34;18.20;99.90
14908;DHT22;7545;52.092;7.006;2023-08-31T11:38:00;18.20;99.90
14908;DHT22;7545;52.092;7.006;2023-08-31T11:40:26;18.20;99.90
14908;DHT22;7545;52.092;7.006;2023-08-31T11:42:52;18.20;99.90
14908;DHT22;7545;52.092;7.006;2023-08-31T11:45:18;18.10;99.90
14908;DHT22;7545;52.092;7.006;2023-08-31T11:47:45;18.00;99.90
14908;DHT22;7545;52.092;7.006;2023-08-31T11:50:13;17.70;99.90
14908;DHT22;7545;52.092;7.006;2023-08-31T11:52:40;17.30;99.90
14908;DHT22;7545;52.092;7.006;2023-08-31T11:55:11;17.10;99.90
14908;DHT22;7545;52.092;7.006;2023-08-31T11:57:37;16.90;99.90
14908;DHT22;7545;52.092;7.006;2023-08-31T12:00:03;16.80;99.90
14908;DHT22;7545;52.092;7.006;2023-08-31T12:02:37;16.70;99.90
14908;DHT22;7545;52.092;7.006;2023-08-31T12:05:04;16.70;99.90
14908;DHT22;7545;52.092;7.006;2023-08-31T12:07:30;16.70;99.90
14908;DHT22;7545;52.092;7.006;2023-08-31T12:10:03;16.80;99.90
14908;DHT22;7545;52.092;7.006;2023-08-31T12:12:30;16.90;99.90
14908;DHT22;7545;52.092;7.006;2023-08-31T12:14:58;17.00;99.90
14908;DHT22;7545;52.092;7.006;2023-08-31T12:17:26;17.10;99.90
14908;DHT22;7545;52.092;7.006;2023-08-31T12:19:51;17.20;99.90
14908;DHT22;7545;52.092;7.006;2023-08-31T12:22:17;17.30;99.90
14908;DHT22;7545;52.092;7.006;2023-08-31T12:24:43;17.40;99.90
14908;DHT22;7545;52.092;7.006;2023-08-31T12:27:09;17.60;99.90
14908;DHT22;7545;52.092;7.006;2023-08-31T12:29:34;17.80;99.90
14908;DHT22;7545;52.092;7.006;2023-08-31T12:32:03;17.90;99.90
14908;DHT22;7545;52.092;7.006;2023-08-31T12:34:29;18.00;99.90
14908;DHT22;7545;52.092;7.006;2023-08-31T12:36:56;18.20;99.90
14908;DHT22;7545;52.092;7.006;2023-08-31T12:39:26;18.30;99.90
14908;DHT22;7545;52.092;7.006;2023-08-31T12:41:51;18.50;99.90
14908;DHT22;7545;52.092;7.006;2023-08-31T12:44:17;18.70;99.90
14908;DHT22;7545;52.092;7.006;2023-08-31T12:46:42;18.80;99.90
14908;DHT22;7545;52.092;7.006;2023-08-31T12:49:08;18.90;99.90
14908;DHT22;7545;52.092;7.006;2023-08-31T12:51:33;18.90;99.90
14908;DHT22;7545;52.092;7.006;2023-08-31T12:53:59;18.90;99.90
14908;DHT22;7545;52.092;7.006;2023-08-31T12:56:25;18.80;99.90
14908;DHT22;7545;52.092;7.006;2023-08-31T12:58:51;18.70;99.90
14908;DHT22;7545;52.092;7.006;2023-08-31T13:01:18;18.60;99.90
14908;DHT22;7545;52.092;7.006;2023-08-31T13:03:44;18.60;99.90
14908;DHT22;7545;52.092;7.006;2023-08-31T13:06:10;18.50;99.90
14908;DHT22;7545;52.092;7.006;2023-08-31T13:08:37;18.40;99.90
14908;DHT22;7545;52.092;7.006;2023-08-31T13:11:02;18.30;99.90
14908;DHT22;7545;52.092;7.006;2023-08-31T13:13:30;18.30;99.90
14908;DHT22;7545;52.092;7.006;2023-08-31T13:15:57;18.20;99.90
14908;DHT22;7545;52.092;7.006;2023-08-31T13:18:22;18.20;99.90
14908;DHT22;7545;52.092;7.006;2023-08-31T13:20:49;18.20;99.90
14908;DHT22;7545;52.092;7.006;2023-08-31T13:23:15;18.20;99.90
14908;DHT22;7545;52.092;7.006;2023-08-31T13:25:41;18.30;99.90
14908;DHT22;7545;52.092;7.006;2023-08-31T13:28:06;18.20;99.90
14908;DHT22;7545;52.092;7.006;2023-08-31T13:30:32;18.10;99.90
14908;DHT22;7545;52.092;7.006;2023-08-31T13:32:57;18.10;99.90
14908;DHT22;7545;52.092;7.006;2023-08-31T13:35:23;18.10;99.90
14908;DHT22;7545;52.092;7.006;2023-08-31T13:37:48;18.00;99.90
14908;DHT22;7545;52.092;7.006;2023-08-31T13:40:14;17.90;99.90
14908;DHT22;7545;52.092;7.006;2023-08-31T13:42:56;17.80;99.90
14908;DHT22;7545;52.092;7.006;2023-08-31T13:45:28;17.90;99.90
14908;DHT22;7545;52.092;7.006;2023-08-31T13:47:54;18.00;99.90
14908;DHT22;7545;52.092;7.006;2023-08-31T13:50:20;18.00;99.90
14908;DHT22;7545;52.092;7.006;2023-08-31T13:52:45;18.00;99.90
14908;DHT22;7545;52.092;7.006;2023-08-31T13:55:11;18.10;99.90
14908;DHT22;7545;52.092;7.006;2023-08-31T13:57:40;18.10;99.90
14908;DHT22;7545;52.092;7.006;2023-08-31T14:00:07;18.20;99.90
14908;DHT22;7545;52.092;7.006;2023-08-31T14:02:35;18.40;99.90
14908;DHT22;7545;52.092;7.006;2023-08-31T14:05:02;18.50;99.90
14908;DHT22;7545;52.092;7.006;2023-08-31T14:07:27;18.70;99.90
14908;DHT22;7545;52.092;7.006;2023-08-31T14:09:53;18.80;99.90
14908;DHT22;7545;52.092;7.006;2023-08-31T14:12:19;18.80;99.90
14908;DHT22;7545;52.092;7.006;2023-08-31T14:14:45;18.90;99.90
14908;DHT22;7545;52.092;7.006;2023-08-31T14:17:11;19.00;99.90
14908;DHT22;7545;52.092;7.006;2023-08-31T14:19:37;19.00;99.90
14908;DHT22;7545;52.092;7.006;2023-08-31T14:22:04;19.00;99.90
14908;DHT22;7545;52.092;7.006;2023-08-31T14:24:30;19.00;99.90
14908;DHT22;7545;52.092;7.006;2023-08-31T14:26:56;19.10;99.90
14908;DHT22;7545;52.092;7.006;2023-08-31T14:29:23;19.10;99.90
14908;DHT22;7545;52.092;7.006;2023-08-31T14:31:48;19.20;99.90
14908;DHT22;7545;52.092;7.006;2023-08-31T14:34:14;19.30;99.90
14908;DHT22;7545;52.092;7.006;2023-08-31T14:36:39;19.40;99.90
14908;DHT22;7545;52.092;7.006;2023-08-31T14:39:05;19.40;99.90
14908;DHT22;7545;52.092;7.006;2023-08-31T14:41:31;19.50;99.90
14908;DHT22;7545;52.092;7.006;2023-08-31T14:43:59;19.60;99.90
14908;DHT22;7545;52.092;7.006;2023-08-31T14:46:25;19.60;99.90
14908;DHT22;7545;52.092;7.006;2023-08-31T14:48:51;19.60;99.90
14908;DHT22;7545;52.092;7.006;2023-08-31T14:51:16;19.70;99.90
14908;DHT22;7545;52.092;7.006;2023-08-31T14:53:42;19.70;99.90
14908;DHT22;7545;52.092;7.006;2023-08-31T14:56:08;19.60;99.90
14908;DHT22;7545;52.092;7.006;2023-08-31T14:58:34;19.50;99.90
14908;DHT22;7545;52.092;7.006;2023-08-31T15:00:59;19.40;99.90
14908;DHT22;7545;52.092;7.006;2023-08-31T15:03:26;19.40;99.90
14908;DHT22;7545;52.092;7.006;2023-08-31T15:05:51;19.30;99.90
14908;DHT22;7545;52.092;7.006;2023-08-31T15:08:17;19.30;99.90
14908;DHT22;7545;52.092;7.006;2023-08-31T15:10:43;19.30;99.90
14908;DHT22;7545;52.092;7.006;2023-08-31T15:13:08;19.30;99.90
14908;DHT22;7545;52.092;7.006;2023-08-31T15:15:34;19.30;99.90
14908;DHT22;7545;52.092;7.006;2023-08-31T15:17:59;19.30;99.90
14908;DHT22;7545;52.092;7.006;2023-08-31T15:20:25;19.30;99.90
14908;DHT22;7545;52.092;7.006;2023-08-31T15:22:51;19.40;99.90
14908;DHT22;7545;52.092;7.006;2023-08-31T15:25:16;19.40;99.90
14908;DHT22;7545;52.092;7.006;2023-08-31T15:27:42;19.50;99.90
14908;DHT22;7545;52.092;7.006;2023-08-31T15:30:09;19.50;99.90
14908;DHT22;7545;52.092;7.006;2023-08-31T15:32:38;19.40;99.90
14908;DHT22;7545;52.092;7.006;2023-08-31T15:35:04;19.40;99.90
14908;DHT22;7545;52.092;7.006;2023-08-31T15:37:30;19.40;99.90
14908;DHT22;7545;52.092;7.006;2023-08-31T15:39:56;19.30;99.90
14908;DHT22;7545;52.092;7.006;2023-08-31T15:42:22;19.30;99.90
14908;DHT22;7545;52.092;7.006;2023-08-31T15:44:50;19.30;99.90
14908;DHT22;7545;52.092;7.006;2023-08-31T15:47:18;19.20;99.90
14908;DHT22;7545;52.092;7.006;2023-08-31T15:49:43;19.20;99.90
14908;DHT22;7545;52.092;7.006;2023-08-31T15:52:09;19.20;99.90